createdAt,value
2022-09-25T00:04:00.084Z,9.19
2022-09-25T00:09:24.452Z,9.29
2022-09-25T00:14:46.605Z,9.32
2022-09-25T00:20:10.068Z,9.28
2022-09-25T00:25:33.605Z,9.24
2022-09-25T00:30:57.373Z,9.16
2022-09-25T00:36:22.848Z,9.16
2022-09-25T00:41:45.863Z,9.16
2022-09-25T00:47:08.079Z,9.17
2022-09-25T00:52:32.033Z,9.13
2022-09-25T00:57:58.389Z,9.12
2022-09-25T01:03:21.387Z,9.13
2022-09-25T01:08:45.763Z,9.14
2022-09-25T01:14:10.994Z,9.12
2022-09-25T01:19:58.797Z,9.10
2022-09-25T01:25:42.986Z,9.08
2022-09-25T01:31:12.846Z,8.98
2022-09-25T01:36:45.602Z,8.94
2022-09-25T01:42:22.614Z,8.93
2022-09-25T01:47:49.537Z,8.77
2022-09-25T01:53:16.135Z,8.67
2022-09-25T01:58:48.495Z,8.55
2022-09-25T02:04:33.540Z,8.48
2022-09-25T02:10:00.175Z,8.42
2022-09-25T02:15:27.308Z,8.40
2022-09-25T02:20:56.623Z,8.30
2022-09-25T02:26:23.654Z,8.16
2022-09-25T02:32:05.031Z,8.02
2022-09-25T02:37:31.908Z,7.90
2022-09-25T02:43:13.888Z,7.78
2022-09-25T02:48:58.396Z,7.69
2022-09-25T02:54:39.747Z,7.64
2022-09-25T03:00:10.744Z,7.63
2022-09-25T03:05:36.287Z,7.53
2022-09-25T03:10:59.621Z,7.46
2022-09-25T03:16:30.765Z,7.42
2022-09-25T03:21:54.433Z,7.27
2022-09-25T03:27:16.601Z,7.18
2022-09-25T03:32:39.424Z,7.14
2022-09-25T03:38:01.580Z,7.00
2022-09-25T03:43:24.353Z,6.87
2022-09-25T03:48:47.240Z,6.81
2022-09-25T03:54:09.967Z,6.74
2022-09-25T03:59:32.167Z,6.68
2022-09-25T04:04:55.525Z,6.56
2022-09-25T04:10:17.843Z,6.49
2022-09-25T04:15:43.302Z,6.42
2022-09-25T04:21:05.917Z,6.36
2022-09-25T04:26:28.745Z,6.34
2022-09-25T04:31:52.984Z,6.30
2022-09-25T04:37:16.114Z,6.29
2022-09-25T04:42:38.572Z,6.22
2022-09-25T04:48:01.283Z,6.18
2022-09-25T04:53:24.129Z,6.17
2022-09-25T04:58:49.222Z,6.23
2022-09-25T05:04:12.031Z,6.30
2022-09-25T05:09:35.259Z,6.38
2022-09-25T05:14:57.398Z,6.43
2022-09-25T05:20:20.169Z,6.56
2022-09-25T05:25:44.058Z,6.79
2022-09-25T05:31:07.924Z,7.07
2022-09-25T05:36:31.225Z,7.27
2022-09-25T05:41:53.401Z,7.44
2022-09-25T05:47:16.182Z,7.60
2022-09-25T05:52:38.738Z,7.81
2022-09-25T05:58:00.883Z,8.00
2022-09-25T06:03:23.604Z,8.17
2022-09-25T06:08:46.711Z,8.32
2022-09-25T06:14:08.888Z,8.48
2022-09-25T06:19:31.413Z,8.64
2022-09-25T06:24:53.665Z,8.80
2022-09-25T06:30:16.285Z,8.99
2022-09-25T06:35:39.279Z,9.18
2022-09-25T06:41:01.999Z,9.31
2022-09-25T06:46:24.782Z,9.42
2022-09-25T06:51:48.218Z,9.53
2022-09-25T06:57:11.563Z,9.74
2022-09-25T07:02:51.561Z,9.85
2022-09-25T07:08:14.891Z,9.85
2022-09-25T07:13:41.181Z,10.04
2022-09-25T07:19:06.183Z,10.22
2022-09-25T07:24:29.971Z,10.40
2022-09-25T07:29:52.177Z,10.59
2022-09-25T07:35:14.800Z,10.77
2022-09-25T07:40:38.369Z,10.94
2022-09-25T07:46:15.845Z,11.19
2022-09-25T07:51:39.049Z,11.26
2022-09-25T07:57:01.759Z,11.46
2022-09-25T08:02:23.994Z,11.64
2022-09-25T08:07:49.529Z,11.61
2022-09-25T08:13:12.111Z,11.68
2022-09-25T08:18:34.343Z,12.00
2022-09-25T08:23:58.246Z,12.29
2022-09-25T08:29:20.420Z,12.48
2022-09-25T08:34:43.219Z,12.75
2022-09-25T08:40:09.728Z,12.81
2022-09-25T08:46:04.954Z,12.88
2022-09-25T08:51:27.853Z,13.03
2022-09-25T08:56:51.394Z,12.76
2022-09-25T09:02:30.724Z,12.91
2022-09-25T09:08:10.449Z,13.13
2022-09-25T09:14:05.064Z,13.43
2022-09-25T09:19:28.952Z,13.23
2022-09-25T09:24:56.390Z,13.27
2022-09-25T09:30:52.317Z,13.38
2022-09-25T09:36:51.350Z,14.20
2022-09-25T09:42:33.464Z,14.44
2022-09-25T09:48:12.440Z,14.37
2022-09-25T09:53:57.299Z,15.33
2022-09-25T09:59:33.601Z,15.81
2022-09-25T10:04:58.458Z,16.45
2022-09-25T10:10:26.306Z,16.59
2022-09-25T10:16:05.383Z,16.72
2022-09-25T10:21:41.469Z,16.47
2022-09-25T10:27:03.727Z,15.93
2022-09-25T10:32:28.130Z,15.76
2022-09-25T10:37:52.661Z,15.40
2022-09-25T10:43:27.724Z,15.62
2022-09-25T10:49:10.382Z,15.60
2022-09-25T10:54:36.850Z,15.27
2022-09-25T11:00:00.974Z,15.55
2022-09-25T11:05:30.298Z,15.82
2022-09-25T11:11:06.103Z,15.76
2022-09-25T11:16:30.104Z,15.53
2022-09-25T11:21:58.901Z,15.37
2022-09-25T11:27:35.005Z,15.13
2022-09-25T11:33:32.927Z,15.35
2022-09-25T11:39:30.021Z,15.48
2022-09-25T11:45:23.811Z,15.49
2022-09-25T11:50:54.277Z,15.48
2022-09-25T11:56:40.689Z,16.34
2022-09-25T12:02:36.734Z,16.73
2022-09-25T12:08:20.293Z,17.44
2022-09-25T12:14:18.793Z,18.83
2022-09-25T12:19:52.475Z,18.49
2022-09-25T12:25:56.459Z,18.18
2022-09-25T12:31:43.785Z,19.10
2022-09-25T12:37:18.615Z,19.93
2022-09-25T12:42:55.104Z,21.64
2022-09-25T12:48:51.004Z,20.84
2022-09-25T12:54:30.277Z,19.57
2022-09-25T13:00:03.673Z,19.13
2022-09-25T13:05:44.792Z,18.23
2022-09-25T13:11:12.212Z,17.52
2022-09-25T13:16:35.758Z,16.68
2022-09-25T13:22:11.491Z,16.32
2022-09-25T13:27:38.750Z,16.46
2022-09-25T13:33:05.249Z,17.56
2022-09-25T13:38:50.321Z,19.05
2022-09-25T13:50:27.800Z,17.91
2022-09-25T13:55:58.510Z,16.79
2022-09-25T14:01:25.332Z,16.41
2022-09-25T14:06:57.310Z,16.18
2022-09-25T14:12:41.584Z,16.06
2022-09-25T14:18:06.574Z,15.95
2022-09-25T14:23:35.798Z,15.84
2022-09-25T14:29:06.628Z,15.65
2022-09-25T14:34:55.981Z,15.45
2022-09-25T14:40:31.074Z,15.40
2022-09-25T14:46:21.422Z,15.37
2022-09-25T14:51:50.671Z,16.71
2022-09-25T14:57:16.353Z,16.76
2022-09-25T15:02:45.646Z,17.53
2022-09-25T15:08:12.264Z,17.16
2022-09-25T15:13:36.252Z,16.56
2022-09-25T15:19:02.567Z,15.95
2022-09-25T15:24:31.709Z,17.00
2022-09-25T15:29:57.040Z,17.35
2022-09-25T15:35:37.689Z,17.60
2022-09-25T15:41:02.432Z,17.67
2022-09-25T15:46:43.946Z,17.60
2022-09-25T15:52:14.028Z,16.60
2022-09-25T15:57:39.456Z,15.74
2022-09-25T16:03:39.926Z,14.83
2022-09-25T16:09:16.576Z,15.24
2022-09-25T16:14:46.711Z,15.35
2022-09-25T16:20:29.192Z,15.02
2022-09-25T16:25:59.180Z,14.40
2022-09-25T16:31:33.513Z,13.78
2022-09-25T16:36:58.546Z,13.30
2022-09-25T16:42:38.778Z,12.84
2022-09-25T16:47:57.048Z,12.31
2022-09-25T16:53:19.399Z,11.89
2022-09-25T16:58:42.976Z,11.53
2022-09-25T17:04:07.303Z,11.14
2022-09-25T17:09:31.693Z,10.92
2022-09-25T17:14:55.435Z,10.65
2022-09-25T17:20:18.812Z,10.41
2022-09-25T17:25:48.826Z,10.18
2022-09-25T17:31:11.371Z,9.99
2022-09-25T17:36:33.703Z,10.12
2022-09-25T17:41:57.314Z,10.05
2022-09-25T17:47:21.981Z,9.89
2022-09-25T17:52:44.415Z,9.81
2022-09-25T17:58:06.834Z,9.53
2022-09-25T18:03:31.462Z,9.38
2022-09-25T18:08:55.955Z,9.15
2022-09-25T18:14:19.011Z,9.07
2022-09-25T18:19:59.640Z,8.94
2022-09-25T18:25:23.475Z,8.70
2022-09-25T18:30:45.643Z,8.58
2022-09-25T18:36:08.397Z,8.59
2022-09-25T18:41:31.240Z,8.48
2022-09-25T18:46:54.890Z,8.31
2022-09-25T18:52:17.721Z,8.15
2022-09-25T18:57:40.780Z,7.98
2022-09-25T19:03:06.393Z,7.90
2022-09-25T19:08:30.386Z,7.81
2022-09-25T19:13:54.331Z,7.72
2022-09-25T19:19:16.589Z,7.59
2022-09-25T19:24:42.339Z,7.53
2022-09-25T19:30:04.675Z,7.53
2022-09-25T19:35:27.004Z,7.56
2022-09-25T19:40:50.798Z,7.47
2022-09-25T19:46:15.075Z,7.36
2022-09-25T19:51:39.410Z,7.22
2022-09-25T19:57:02.536Z,7.25
2022-09-25T20:02:25.773Z,7.11
2022-09-25T20:07:47.980Z,7.04
2022-09-25T20:13:10.618Z,7.03
2022-09-25T20:18:33.758Z,7.00
2022-09-25T20:23:58.413Z,7.02
2022-09-25T20:29:24.185Z,7.04
2022-09-25T20:34:47.552Z,7.13
2022-09-25T20:40:09.877Z,7.18
2022-09-25T20:45:32.174Z,7.33
2022-09-25T20:50:56.830Z,7.48
2022-09-25T20:56:24.508Z,7.65
2022-09-25T21:01:50.067Z,7.80
2022-09-25T21:07:16.709Z,7.89
2022-09-25T21:12:36.623Z,8.01
2022-09-25T21:18:00.257Z,8.27
2022-09-25T21:23:22.411Z,8.34
2022-09-25T21:28:45.696Z,8.36
2022-09-25T21:34:10.984Z,8.38
2022-09-25T21:39:33.137Z,8.51
2022-09-25T21:44:55.711Z,8.53
2022-09-25T21:50:18.512Z,8.62
2022-09-25T21:55:41.338Z,8.65
2022-09-25T22:01:10.585Z,8.69
2022-09-25T22:06:37.880Z,8.71
2022-09-25T22:12:01.682Z,8.66
2022-09-25T22:17:23.837Z,8.65
2022-09-25T22:22:46.432Z,8.65
2022-09-25T22:28:08.568Z,8.70
2022-09-25T22:33:30.714Z,8.74
2022-09-25T22:38:53.588Z,8.78
2022-09-25T22:44:15.764Z,8.76
2022-09-25T22:49:38.169Z,8.73
2022-09-25T22:55:00.323Z,8.76
2022-09-25T23:00:23.430Z,8.77
2022-09-25T23:05:47.278Z,8.78
2022-09-25T23:11:11.337Z,8.69
2022-09-25T23:16:34.153Z,8.60
2022-09-25T23:21:59.495Z,8.59
2022-09-25T23:27:21.683Z,8.65
2022-09-25T23:32:44.290Z,8.62
2022-09-25T23:38:09.006Z,8.59
2022-09-25T23:43:31.493Z,8.59
2022-09-25T23:48:54.582Z,8.56
2022-09-25T23:54:18.662Z,8.51
2022-09-25T23:59:40.881Z,8.46
